Time;durP1;ratioP1;P1;durP2;ratioP2;P2;SDS_P1;SDS_P2;PMS_P1;PMS_P2;Temp;Humidity;BMP_temperature;BMP_pressure;BME280_temperature;BME280_humidity;BME280_pressure;Samples;Min_cycle;Max_cycle;Signal;HPM_P1;HPM_P2
2022/12/20 00:04:57;;;;;;;2.50;1.40;;;;;;;10.77;88.77;101208.69;10482910;28;20178;-83
2022/12/20 00:09:58;;;;;;;4.90;2.38;;;;;;;10.65;89.68;101213.28;10449794;28;20566;-83
2022/12/20 00:14:58;;;;;;;4.90;1.90;;;;;;;10.57;89.89;101211.16;10447544;28;20045;-82
2022/12/20 00:19:59;;;;;;;4.40;1.88;;;;;;;10.74;88.40;101218.13;10487330;28;20060;-84
2022/12/20 00:24:59;;;;;;;17.33;3.15;;;;;;;10.73;88.86;101222.44;10478241;28;20121;-83
2022/12/20 00:30:00;;;;;;;3.03;1.35;;;;;;;10.72;88.68;101213.72;10488418;28;20465;-83
2022/12/20 00:35:00;;;;;;;5.75;2.10;;;;;;;10.78;88.02;101218.34;10488608;28;20046;-83
2022/12/20 00:40:02;;;;;;;4.38;1.85;;;;;;;10.81;87.63;101215.00;10449170;28;20037;-83
2022/12/20 00:45:03;;;;;;;2.67;1.98;;;;;;;10.85;88.02;101196.03;10458626;28;20064;-82
2022/12/20 00:50:04;;;;;;;3.25;1.45;;;;;;;10.87;88.00;101189.16;10449546;28;20044;-81
2022/12/20 00:55:04;;;;;;;5.85;2.17;;;;;;;10.86;87.47;101200.44;10447031;28;20056;-84
2022/12/20 01:00:05;;;;;;;3.97;1.80;;;;;;;10.89;87.55;101182.28;10446970;28;20524;-83
2022/12/20 01:05:06;;;;;;;2.28;1.50;;;;;;;10.69;88.78;101176.91;10448205;28;20118;-82
2022/12/20 01:10:07;;;;;;;4.40;1.60;;;;;;;10.67;89.06;101178.53;10485560;28;20067;-83
2022/12/20 01:15:08;;;;;;;3.95;1.73;;;;;;;10.65;89.28;101164.47;10487894;28;20542;-82
2022/12/20 01:20:09;;;;;;;3.65;2.20;;;;;;;10.69;88.97;101169.03;10447366;28;20041;-83
2022/12/20 01:25:10;;;;;;;2.47;1.95;;;;;;;10.68;89.23;101176.81;10455718;28;20542;-81
2022/12/20 01:30:11;;;;;;;4.70;1.38;;;;;;;10.68;89.15;101190.81;10449599;28;20602;-83
2022/12/20 01:35:11;;;;;;;3.95;2.42;;;;;;;10.80;88.84;101194.88;10438260;28;20040;-84
2022/12/20 01:40:12;;;;;;;2.60;1.48;;;;;;;10.90;88.42;101189.31;10481857;28;20059;-83
2022/12/20 01:45:17;;;;;;;3.13;1.85;;;;;;;10.76;89.21;101167.63;10486361;28;20036;-82
2022/12/20 01:50:18;;;;;;;2.10;1.35;;;;;;;10.70;91.19;101172.53;10428711;28;20155;-82
2022/12/20 01:55:23;;;;;;;4.93;2.13;;;;;;;10.75;91.47;101165.84;10382845;28;20087;-84
2022/12/20 02:00:23;;;;;;;4.65;1.60;;;;;;;10.63;93.01;101179.19;10400036;28;20047;-81
2022/12/20 02:05:24;;;;;;;7.85;1.70;;;;;;;10.57;93.99;101153.59;10398925;28;20503;-81
2022/12/20 02:10:28;;;;;;;4.47;1.80;;;;;;;10.41;96.27;101159.75;10403984;28;20125;-82
2022/12/20 02:15:47;;;;;;;9.15;2.25;;;;;;;10.43;96.17;101136.25;10421839;28;20037;-83
2022/12/20 02:21:04;;;;;;;5.25;1.70;;;;;;;10.23;99.84;101172.69;10438934;28;20045;-83
2022/12/20 02:26:11;;;;;;;6.82;1.75;;;;;;;10.08;100.00;101171.88;10445188;28;20048;-83
2022/12/20 02:31:13;;;;;;;9.90;2.00;;;;;;;10.16;100.00;101156.59;10464021;28;20536;-83
2022/12/20 02:36:15;;;;;;;3.50;2.00;;;;;;;10.20;100.00;101141.13;10461290;28;20509;-82
2022/12/20 02:41:19;;;;;;;;;;;;;;;10.25;100.00;101144.91;10424454;28;20041;-82
2022/12/20 02:46:20;;;;;;;3.78;1.83;;;;;;;10.25;100.00;101131.81;10443075;28;19929;-83
2022/12/20 02:51:20;;;;;;;4.82;1.83;;;;;;;10.17;100.00;101106.97;10425465;28;20108;-84
2022/12/20 02:56:32;;;;;;;4.43;2.25;;;;;;;10.29;100.00;101119.81;10414734;28;20041;-84
2022/12/20 03:01:35;;;;;;;3.30;1.98;;;;;;;10.38;98.74;101122.91;10425841;28;20061;-84
2022/12/20 03:06:36;;;;;;;4.07;1.83;;;;;;;10.37;98.91;101122.81;10424698;28;20496;-82
2022/12/20 03:11:36;;;;;;;3.75;1.98;;;;;;;10.26;99.90;101112.69;10443032;28;20085;-84
2022/12/20 03:16:37;;;;;;;4.53;1.60;;;;;;;10.07;100.00;101125.59;10449599;28;20175;-82
2022/12/20 03:21:37;;;;;;;2.45;1.35;;;;;;;9.92;100.00;101121.34;10442732;28;20090;-83
2022/12/20 03:26:39;;;;;;;4.00;1.60;;;;;;;9.87;100.00;101135.00;10454773;28;20040;-83
2022/12/20 03:31:39;;;;;;;4.07;2.40;;;;;;;9.69;100.00;101123.59;10440821;28;20037;-83
2022/12/20 03:36:40;;;;;;;3.97;1.85;;;;;;;9.63;100.00;101128.50;10444803;28;20067;-84
2022/12/20 03:41:40;;;;;;;4.10;2.00;;;;;;;9.59;100.00;101128.25;10488130;28;20032;-84
2022/12/20 03:46:41;;;;;;;3.15;1.70;;;;;;;9.54;100.00;101141.03;10480484;28;20041;-84
2022/12/20 03:51:42;;;;;;;4.45;2.53;;;;;;;9.60;100.00;101119.59;10491729;28;20040;-83
2022/12/20 03:56:43;;;;;;;5.30;2.20;;;;;;;9.66;100.00;101131.28;10490163;28;20041;-84
2022/12/20 04:01:43;;;;;;;4.97;1.98;;;;;;;9.66;100.00;101139.09;10450623;28;20053;-83
2022/12/20 04:06:44;;;;;;;8.52;3.15;;;;;;;9.68;100.00;101141.81;10450015;28;20575;-83
2022/12/20 04:11:44;;;;;;;4.22;2.20;;;;;;;9.92;100.00;101131.81;10491032;28;20044;-83
2022/12/20 04:16:45;;;;;;;4.32;2.17;;;;;;;10.02;100.00;101134.91;10473396;28;20071;-84
2022/12/20 04:21:45;;;;;;;3.53;1.88;;;;;;;9.77;100.00;101131.88;10490247;28;20101;-84
2022/12/20 04:26:46;;;;;;;3.70;2.42;;;;;;;9.39;100.00;101121.06;10488661;28;20124;-82
2022/12/20 04:31:46;;;;;;;7.53;3.00;;;;;;;9.30;100.00;101128.38;10446568;28;20098;-82
2022/12/20 04:36:47;;;;;;;6.20;2.80;;;;;;;9.26;100.00;101123.81;10447307;28;20033;-80
2022/12/20 04:41:47;;;;;;;6.80;2.85;;;;;;;9.16;100.00;101113.63;10469380;28;20070;-83
2022/12/20 04:46:48;;;;;;;5.55;2.60;;;;;;;9.07;100.00;101117.53;10471690;28;20132;-82
2022/12/20 04:51:48;;;;;;;4.75;2.53;;;;;;;9.04;100.00;101101.69;10420651;28;20159;-82
2022/12/20 04:56:49;;;;;;;11.10;3.70;;;;;;;9.04;100.00;101100.78;10404664;28;20048;-81
2022/12/20 05:01:49;;;;;;;9.57;2.67;;;;;;;8.94;100.00;101092.44;10400776;28;20120;-81
2022/12/20 05:06:50;;;;;;;4.53;3.15;;;;;;;9.02;100.00;101091.97;10405063;28;20049;-81
2022/12/20 05:11:50;;;;;;;6.57;2.28;;;;;;;9.06;100.00;101078.28;10467600;28;20047;-81
2022/12/20 05:16:51;;;;;;;3.95;2.38;;;;;;;9.00;100.00;101084.03;10455224;28;20029;-84
2022/12/20 05:27:11;;;;;;;6.78;2.30;;;;;;;9.04;100.00;101072.97;10450460;28;20128;-83
2022/12/20 05:32:11;;;;;;;3.90;2.08;;;;;;;9.00;100.00;101070.97;10464826;28;20044;-84
2022/12/20 05:37:12;;;;;;;8.02;2.63;;;;;;;8.92;100.00;101054.91;10400020;28;20503;-88
2022/12/20 05:42:12;;;;;;;5.53;2.50;;;;;;;8.92;100.00;101059.19;10402698;28;20065;-79
2022/12/20 05:47:13;;;;;;;3.45;1.42;;;;;;;8.98;100.00;101059.56;10408840;28;20523;-86
2022/12/20 05:52:13;;;;;;;5.78;2.15;;;;;;;8.93;100.00;101059.31;10382791;28;20037;-87
2022/12/20 05:57:14;;;;;;;3.92;1.88;;;;;;;8.99;100.00;101042.19;10412280;28;20517;-85
2022/12/20 06:02:15;;;;;;;4.68;2.42;;;;;;;9.02;100.00;101029.31;10400740;28;20041;-88
2022/12/20 06:07:16;;;;;;;5.18;2.10;;;;;;;9.03;100.00;101031.13;10381058;28;20041;-86
2022/12/20 06:12:16;;;;;;;4.93;2.30;;;;;;;9.02;100.00;101018.88;10382595;28;20391;-83
2022/12/20 06:17:17;;;;;;;5.82;5.25;;;;;;;9.05;100.00;101012.09;10396720;28;20428;-83
2022/12/20 06:22:18;;;;;;;6.78;3.95;;;;;;;9.10;100.00;100981.91;10440492;28;20052;-83
2022/12/20 06:27:20;;;;;;;3.25;1.65;;;;;;;9.17;100.00;100988.41;10398792;28;20030;-87
2022/12/20 06:32:20;;;;;;;5.53;1.63;;;;;;;9.11;100.00;100990.66;10432645;28;20052;-89
2022/12/20 06:37:21;;;;;;;4.13;1.70;;;;;;;9.01;100.00;100989.25;10396032;28;20278;-86
2022/12/20 06:42:22;;;;;;;3.47;1.80;;;;;;;8.93;100.00;100994.06;10398379;28;20098;-88
2022/12/20 06:47:23;;;;;;;4.75;1.80;;;;;;;8.99;100.00;101003.91;10422368;28;20045;-86
2022/12/20 06:52:23;;;;;;;4.40;2.45;;;;;;;8.98;100.00;100998.63;10403153;28;20036;-83
2022/12/20 06:57:24;;;;;;;3.72;1.60;;;;;;;9.05;100.00;100978.16;10399532;28;20091;-90
2022/12/20 07:02:24;;;;;;;6.05;2.15;;;;;;;9.06;100.00;100981.69;10439557;28;20552;-91
2022/12/20 07:07:25;;;;;;;4.70;1.75;;;;;;;9.04;100.00;100965.91;10405144;28;20551;-90
2022/12/20 07:12:25;;;;;;;3.30;1.77;;;;;;;9.11;100.00;100973.28;10438480;28;20037;-90
2022/12/20 07:17:26;;;;;;;5.95;2.53;;;;;;;9.21;100.00;100976.41;10441212;28;20427;-90
2022/12/20 07:22:27;;;;;;;8.18;2.72;;;;;;;9.15;100.00;100981.28;10440160;28;20601;-91
2022/12/20 07:27:27;;;;;;;3.22;1.38;;;;;;;9.02;100.00;100975.38;10423055;28;20044;-87
2022/12/20 07:32:28;;;;;;;4.13;1.45;;;;;;;9.06;100.00;100985.19;10403618;28;20072;-87
2022/12/20 07:37:29;;;;;;;2.72;1.83;;;;;;;8.95;100.00;100988.91;10399418;28;20061;-88
2022/12/20 07:42:29;;;;;;;4.72;1.90;;;;;;;8.98;100.00;100994.28;10397965;28;20038;-86
2022/12/20 07:47:30;;;;;;;6.15;1.60;;;;;;;8.99;100.00;100989.97;10438812;28;20045;-88
2022/12/20 07:52:31;;;;;;;6.20;1.95;;;;;;;9.09;100.00;100995.78;10440017;28;20041;-85
2022/12/20 07:57:38;;;;;;;2.80;1.38;;;;;;;9.27;100.00;100987.19;10438553;28;20477;-88
2022/12/20 08:02:45;;;;;;;2.88;1.45;;;;;;;9.29;100.00;100987.28;10463738;28;20443;-87
2022/12/20 08:07:45;;;;;;;7.50;1.42;;;;;;;9.41;100.00;100985.34;10480512;28;20439;-88
2022/12/20 08:12:46;;;;;;;4.35;1.90;;;;;;;9.49;100.00;100981.41;10479914;28;20051;-89
2022/12/20 08:17:46;;;;;;;2.75;1.23;;;;;;;9.64;100.00;100985.66;10463206;28;20071;-88
2022/12/20 08:22:47;;;;;;;2.85;1.73;;;;;;;9.86;100.00;100982.47;10474617;28;20515;-87
2022/12/20 08:27:48;;;;;;;2.50;1.20;;;;;;;9.91;100.00;100985.34;10485607;28;20041;-88
2022/12/20 08:32:49;;;;;;;3.13;1.75;;;;;;;9.84;100.00;100978.88;10441315;28;20038;-88
2022/12/20 08:37:52;;;;;;;2.42;1.40;;;;;;;9.88;100.00;100996.50;10404105;28;20041;-85
2022/12/20 08:42:53;;;;;;;3.45;1.60;;;;;;;9.95;100.00;100992.50;10419681;28;20143;-87
2022/12/20 08:47:54;;;;;;;2.78;1.50;;;;;;;10.03;100.00;100992.91;10404072;28;20045;-85
2022/12/20 08:52:54;;;;;;;3.28;1.60;;;;;;;9.98;100.00;100975.25;10428506;28;20043;-86
2022/12/20 08:57:55;;;;;;;3.65;1.85;;;;;;;10.16;100.00;100976.13;10444349;28;20037;-86
2022/12/20 09:02:55;;;;;;;3.13;1.90;;;;;;;10.38;100.00;100970.25;10429986;28;20402;-92
2022/12/20 09:07:56;;;;;;;2.53;1.30;;;;;;;10.42;99.02;100953.91;10375858;28;20045;-89
2022/12/20 09:12:56;;;;;;;4.63;1.48;;;;;;;10.61;97.48;100958.34;10346212;28;20054;-87
2022/12/20 09:17:59;;;;;;;2.55;1.63;;;;;;;10.74;95.47;100957.22;10364882;28;20084;-89
2022/12/20 09:22:59;;;;;;;;;;;;;;;10.78;95.33;100960.91;10362494;28;20037;-83
2022/12/20 09:28:00;;;;;;;4.20;1.35;;;;;;;10.81;94.32;100969.78;10359420;28;20297;-89
2022/12/20 09:33:00;;;;;;;4.22;1.42;;;;;;;10.77;96.38;100966.97;10371122;28;20026;-90
2022/12/20 09:38:01;;;;;;;2.33;1.08;;;;;;;10.73;97.14;100968.50;10329735;28;20041;-89
2022/12/20 09:43:01;;;;;;;3.88;2.15;;;;;;;10.71;98.34;100963.22;10363156;28;20540;-90
2022/12/20 09:48:04;;;;;;;2.17;1.42;;;;;;;10.76;97.63;100960.81;10385859;28;20460;-90
2022/12/20 09:53:21;;;;;;;3.67;1.52;;;;;;;10.82;97.28;100962.84;10369135;28;20045;-89
2022/12/20 09:58:37;;;;;;;5.97;1.50;;;;;;;10.83;97.59;100933.22;10431952;28;20052;-88
2022/12/20 10:03:38;;;;;;;2.17;1.13;;;;;;;10.96;96.74;100945.16;10457871;28;20507;-83
2022/12/20 10:08:43;;;;;;;2.83;1.60;;;;;;;11.22;95.16;100942.84;10466899;28;20039;-90
2022/12/20 10:14:12;;;;;;;4.03;2.10;;;;;;;11.52;94.09;100934.59;10427019;28;20045;-86
2022/12/20 10:19:28;;;;;;;3.92;1.70;;;;;;;11.63;92.31;100928.13;10476810;28;20045;-93
2022/12/20 10:24:32;;;;;;;4.65;2.40;;;;;;;11.52;92.56;100922.41;10463251;28;20115;-88
2022/12/20 10:29:33;;;;;;;3.90;1.75;;;;;;;11.54;92.66;100920.75;10447788;28;20052;-84
2022/12/20 10:34:34;;;;;;;5.47;2.05;;;;;;;11.48;93.50;100923.09;10456151;28;20073;-95
2022/12/20 10:39:41;;;;;;;5.22;1.63;;;;;;;11.24;95.00;100929.03;10361706;28;20033;-90
2022/12/20 10:44:41;;;;;;;2.92;1.95;;;;;;;11.19;95.44;100938.38;10382381;28;20065;-90
2022/12/20 10:49:42;;;;;;;5.15;2.15;;;;;;;11.11;96.54;100924.03;10383128;28;20033;-90
2022/12/20 10:54:45;;;;;;;6.15;1.83;;;;;;;11.08;98.46;100918.66;10405508;28;20047;-91
2022/12/20 10:59:57;;;;;;;3.50;1.60;;;;;;;11.22;98.06;100914.03;10400346;28;20489;-89
2022/12/20 11:04:59;;;;;;;5.90;2.45;;;;;;;11.24;99.24;100915.00;10399870;28;20390;-90
2022/12/20 11:10:02;;;;;;;5.53;1.80;;;;;;;11.28;98.36;100907.38;10399895;28;20095;-90
2022/12/20 11:15:18;;;;;;;5.68;3.83;;;;;;;11.36;99.26;100902.47;10392653;28;20049;-89
2022/12/20 11:20:29;;;;;;;4.95;1.70;;;;;;;11.37;97.94;100890.28;10399436;28;20505;-87
2022/12/20 11:25:44;;;;;;;4.15;1.80;;;;;;;11.22;99.86;100896.63;10382066;28;20137;-89
2022/12/20 11:31:03;;;;;;;4.75;2.08;;;;;;;11.00;100.00;100900.88;10400514;28;20448;-90
2022/12/20 11:36:09;;;;;;;4.88;1.80;;;;;;;10.96;100.00;100890.16;10427780;28;20128;-90
2022/12/20 11:41:28;;;;;;;5.53;1.77;;;;;;;11.04;100.00;100878.31;10483768;28;20040;-89
2022/12/20 11:46:52;;;;;;;2.92;1.75;;;;;;;11.08;100.00;100871.50;10449450;28;20044;-88
2022/12/20 11:52:18;;;;;;;5.10;1.90;;;;;;;11.21;100.00;100886.06;10442163;28;20052;-88
2022/12/20 11:57:23;;;;;;;2.80;1.60;;;;;;;11.07;100.00;100877.59;10483989;28;20475;-90
2022/12/20 12:02:30;;;;;;;3.17;1.52;;;;;;;10.42;100.00;100906.81;10482238;28;20068;-82
2022/12/20 12:07:35;;;;;;;5.07;1.73;;;;;;;10.09;100.00;100888.59;10487803;28;20055;-90
2022/12/20 12:12:42;;;;;;;3.28;1.80;;;;;;;10.01;100.00;100890.84;10479832;28;20041;-87
2022/12/20 12:18:07;;;;;;;4.82;2.55;;;;;;;10.06;100.00;100881.53;10480366;28;20071;-89
2022/12/20 12:23:35;;;;;;;4.45;1.60;;;;;;;10.16;100.00;100892.44;10471101;28;20035;-90
2022/12/20 12:28:36;;;;;;;4.20;1.50;;;;;;;10.10;100.00;100880.84;10484304;28;20371;-90
2022/12/20 12:33:47;;;;;;;3.70;2.00;;;;;;;10.01;100.00;100896.09;10448155;28;20037;-89
2022/12/20 12:39:10;;;;;;;5.55;2.20;;;;;;;9.76;100.00;100899.16;10438689;28;20400;-87
2022/12/20 12:44:37;;;;;;;4.90;2.35;;;;;;;9.37;100.00;100898.06;10472704;28;20416;-80
2022/12/20 12:49:38;;;;;;;6.47;3.70;;;;;;;9.25;100.00;100907.84;10445446;28;20048;-91
2022/12/20 12:54:39;;;;;;;5.57;3.20;;;;;;;9.09;100.00;100920.06;10485013;28;20502;-86
2022/12/20 12:59:46;;;;;;;7.33;2.90;;;;;;;9.01;100.00;100926.59;10455697;28;20550;-88
2022/12/20 13:05:07;;;;;;;9.43;5.15;;;;;;;8.98;100.00;100938.59;10485597;28;20120;-86
2022/12/20 13:10:08;;;;;;;8.27;3.53;;;;;;;8.94;100.00;100940.13;10431615;28;20049;-90
2022/12/20 13:15:18;;;;;;;8.95;4.57;;;;;;;8.87;100.00;100935.38;10409388;28;20050;-85
2022/12/20 13:20:29;;;;;;;9.23;3.65;;;;;;;8.83;100.00;100934.31;10404262;28;20042;-89
2022/12/20 13:25:30;;;;;;;6.38;4.03;;;;;;;8.86;100.00;100938.78;10440436;28;20029;-87
2022/12/20 13:30:31;;;;;;;24.92;6.43;;;;;;;8.78;100.00;100930.53;10429333;28;20198;-88
2022/12/20 13:35:43;;;;;;;9.40;4.13;;;;;;;8.77;100.00;100931.38;10427313;28;20485;-89
2022/12/20 13:40:47;;;;;;;9.68;4.72;;;;;;;8.75;100.00;100930.38;10433431;28;20044;-90
2022/12/20 13:45:53;;;;;;;11.30;4.15;;;;;;;8.82;100.00;100927.28;10442396;28;20041;-87
2022/12/20 13:50:54;;;;;;;10.75;6.07;;;;;;;8.81;100.00;100923.78;10430310;28;20424;-82
2022/12/20 13:55:55;;;;;;;11.68;5.40;;;;;;;8.79;100.00;100929.75;10419181;28;20452;-91
2022/12/20 14:01:06;;;;;;;7.88;4.20;;;;;;;8.78;100.00;100921.00;10403664;28;20037;-91
2022/12/20 14:06:10;;;;;;;8.27;4.25;;;;;;;8.72;100.00;100920.66;10444786;28;20037;-92
2022/12/20 14:11:17;;;;;;;8.57;4.63;;;;;;;8.70;100.00;100914.44;10443982;28;20040;-92
2022/12/20 14:16:18;;;;;;;7.75;5.85;;;;;;;8.61;100.00;100912.22;10445195;28;20036;-91
2022/12/20 14:21:19;;;;;;;8.60;4.73;;;;;;;8.64;100.00;100906.28;10442446;28;20120;-91
2022/12/20 14:26:27;;;;;;;7.35;3.95;;;;;;;8.64;100.00;100912.41;10425557;28;20032;-91
2022/12/20 14:31:31;;;;;;;4.75;3.63;;;;;;;8.57;100.00;100909.34;10443784;28;20072;-91
2022/12/20 14:36:33;;;;;;;11.30;4.25;;;;;;;8.56;100.00;100910.16;10442131;28;20045;-92
2022/12/20 14:41:38;;;;;;;9.97;4.33;;;;;;;8.57;100.00;100896.31;10426706;28;20035;-91
2022/12/20 14:46:39;;;;;;;6.68;3.72;;;;;;;8.52;100.00;100902.16;10441923;28;20092;-91
2022/12/20 14:51:40;;;;;;;8.63;6.93;;;;;;;8.47;100.00;100900.97;10440732;28;20045;-92
2022/12/20 14:56:44;;;;;;;10.32;5.53;;;;;;;8.45;100.00;100899.97;10440732;28;20037;-91
2022/12/20 15:01:45;;;;;;;8.50;4.97;;;;;;;8.44;100.00;100892.09;10425686;28;20116;-93
2022/12/20 15:06:48;;;;;;;9.15;5.03;;;;;;;8.44;100.00;100866.00;10424419;28;20037;-90
2022/12/20 15:11:50;;;;;;;7.82;5.22;;;;;;;8.44;100.00;100874.72;10441673;28;20037;-91
2022/12/20 15:16:52;;;;;;;10.90;5.45;;;;;;;8.48;100.00;100870.59;10424694;28;20059;-91
2022/12/20 15:21:52;;;;;;;17.65;6.00;;;;;;;8.44;100.00;100872.09;10439111;28;20041;-91
2022/12/20 15:26:53;;;;;;;10.52;5.10;;;;;;;8.47;100.00;100880.09;10409850;28;20052;-89
2022/12/20 15:32:05;;;;;;;10.27;5.68;;;;;;;8.42;100.00;100876.34;10416008;28;20044;-90
2022/12/20 15:37:10;;;;;;;11.45;5.63;;;;;;;8.40;100.00;100888.41;10449024;28;20049;-90
2022/12/20 15:42:13;;;;;;;9.75;5.50;;;;;;;8.37;100.00;100894.34;10378180;28;20037;-89
2022/12/20 15:47:14;;;;;;;10.48;5.10;;;;;;;8.38;100.00;100893.53;10406717;28;20047;-89
2022/12/20 15:52:20;;;;;;;10.45;5.68;;;;;;;8.40;100.00;100891.00;10407027;28;20056;-89
2022/12/20 15:57:20;;;;;;;9.25;6.22;;;;;;;8.34;100.00;100888.03;10429116;28;20090;-91
2022/12/20 16:02:25;;;;;;;14.77;6.57;;;;;;;8.30;100.00;100883.47;10481698;28;20036;-91
2022/12/20 16:07:26;;;;;;;9.98;6.53;;;;;;;8.30;100.00;100880.84;10486888;28;20496;-90
2022/12/20 16:12:31;;;;;;;10.32;5.65;;;;;;;8.32;100.00;100881.84;10490255;28;20039;-91
2022/12/20 16:17:32;;;;;;;15.35;6.40;;;;;;;8.32;100.00;100881.84;10460550;28;20045;-90
2022/12/20 16:22:32;;;;;;;8.95;5.68;;;;;;;8.32;100.00;100879.22;10454595;28;20492;-90
2022/12/20 16:27:33;;;;;;;10.13;6.75;;;;;;;8.32;100.00;100872.31;10436389;28;20033;-89
2022/12/20 16:32:34;;;;;;;11.50;7.35;;;;;;;8.33;100.00;100874.13;10447024;28;20033;-91
2022/12/20 16:37:34;;;;;;;8.27;4.75;;;;;;;8.35;100.00;100877.72;10449391;28;20055;-91
2022/12/20 16:42:35;;;;;;;7.68;5.82;;;;;;;8.34;100.00;100877.63;10470355;28;20510;-91
2022/12/20 16:47:36;;;;;;;10.07;5.20;;;;;;;8.36;100.00;100878.59;10481013;28;20061;-90
2022/12/20 16:52:36;;;;;;;10.15;5.47;;;;;;;8.41;100.00;100882.38;10451748;28;20041;-90
2022/12/20 16:57:37;;;;;;;10.90;7.20;;;;;;;8.36;100.00;100883.81;10485315;28;20600;-90
2022/12/20 17:02:37;;;;;;;8.57;6.28;;;;;;;8.35;100.00;100880.31;10480618;28;20585;-89
2022/12/20 17:07:38;;;;;;;14.20;8.63;;;;;;;8.35;100.00;100879.41;10452906;28;20041;-91
2022/12/20 17:12:39;;;;;;;15.98;6.68;;;;;;;8.34;100.00;100881.13;10443979;28;20436;-89
2022/12/20 17:17:39;;;;;;;9.20;5.93;;;;;;;8.34;100.00;100867.19;10443980;28;20048;-88
2022/12/20 17:22:40;;;;;;;11.90;6.60;;;;;;;8.32;100.00;100866.19;10442592;28;20049;-82
2022/12/20 17:27:41;;;;;;;9.70;6.45;;;;;;;8.29;100.00;100874.75;10408597;28;20068;-89
2022/12/20 17:32:42;;;;;;;15.23;7.27;;;;;;;8.26;100.00;100873.66;10444686;28;20056;-88
2022/12/20 17:37:43;;;;;;;15.43;7.18;;;;;;;8.22;100.00;100878.72;10445142;28;20274;-89
2022/12/20 17:42:43;;;;;;;12.00;7.43;;;;;;;8.20;100.00;100880.34;10443654;28;20037;-90
2022/12/20 17:47:44;;;;;;;13.98;9.35;;;;;;;8.26;100.00;100882.41;10444781;28;20036;-90
2022/12/20 17:52:44;;;;;;;21.42;10.63;;;;;;;8.25;100.00;100875.41;10426816;28;20029;-88
2022/12/20 17:57:45;;;;;;;12.88;7.47;;;;;;;8.32;100.00;100874.03;10427349;28;20401;-89
2022/12/20 18:02:46;;;;;;;11.43;8.38;;;;;;;8.32;100.00;100867.09;10443087;28;20068;-89
2022/12/20 18:07:53;;;;;;;14.68;8.82;;;;;;;8.30;100.00;100866.13;10442418;28;20056;-90
2022/12/20 18:12:54;;;;;;;20.33;8.32;;;;;;;8.29;100.00;100866.94;10443919;28;20041;-90
2022/12/20 18:17:54;;;;;;;16.13;9.65;;;;;;;8.33;100.00;100865.38;10442564;28;20091;-90
2022/12/20 18:22:55;;;;;;;15.63;8.32;;;;;;;8.33;100.00;100854.97;10441871;28;20048;-92
2022/12/20 18:27:55;;;;;;;17.70;11.15;;;;;;;8.29;100.00;100866.03;10443842;28;20047;-89
2022/12/20 18:32:56;;;;;;;14.40;10.60;;;;;;;8.28;100.00;100872.06;10457470;28;20045;-90
2022/12/20 18:37:56;;;;;;;17.95;11.45;;;;;;;8.30;100.00;100875.63;10453938;28;20041;-90
2022/12/20 18:42:57;;;;;;;17.25;10.57;;;;;;;8.32;100.00;100868.81;10455525;28;20039;-89
2022/12/20 18:47:57;;;;;;;19.17;12.02;;;;;;;8.30;100.00;100879.16;10476472;28;20480;-93
2022/12/20 18:52:58;;;;;;;14.80;11.02;;;;;;;8.34;100.00;100868.09;10460359;28;20047;-93
2022/12/20 18:57:58;;;;;;;19.92;11.90;;;;;;;8.36;100.00;100869.09;10451107;28;20477;-91
2022/12/20 19:03:01;;;;;;;16.35;9.70;;;;;;;8.36;100.00;100876.00;10452348;28;20127;-92
2022/12/20 19:08:01;;;;;;;16.73;11.23;;;;;;;8.32;100.00;100872.31;10450040;28;20040;-93
2022/12/20 19:13:02;;;;;;;15.93;9.57;;;;;;;8.34;100.00;100861.97;10452104;28;20052;-92
2022/12/20 19:18:03;;;;;;;14.98;8.88;;;;;;;8.37;100.00;100855.22;10465015;28;20097;-92
2022/12/20 19:23:03;;;;;;;14.30;9.25;;;;;;;8.37;100.00;100855.22;10424567;28;20032;-93
2022/12/20 19:28:04;;;;;;;13.27;9.70;;;;;;;8.42;100.00;100849.38;10424197;28;20123;-92
2022/12/20 19:33:04;;;;;;;14.30;9.00;;;;;;;8.41;100.00;100856.28;10442176;28;20040;-92
2022/12/20 19:38:06;;;;;;;18.48;9.43;;;;;;;8.36;100.00;100856.03;10441744;28;20132;-91
2022/12/20 19:43:07;;;;;;;15.88;9.80;;;;;;;8.37;100.00;100865.66;10442092;28;20044;-93
2022/12/20 19:48:07;;;;;;;15.07;9.38;;;;;;;8.43;100.00;100866.81;10474032;28;20073;-91
2022/12/20 19:53:09;;;;;;;14.35;8.07;;;;;;;8.41;100.00;100874.53;10440668;28;20045;-93
2022/12/20 19:58:10;;;;;;;13.13;7.60;;;;;;;8.39;100.00;100865.72;10441559;28;20036;-94
2022/12/20 20:03:11;;;;;;;16.05;8.73;;;;;;;8.43;100.00;100864.22;10442022;28;20060;-92
2022/12/20 20:08:11;;;;;;;14.50;8.70;;;;;;;8.40;100.00;100867.53;10439584;28;20040;-92
2022/12/20 20:13:12;;;;;;;14.23;8.98;;;;;;;8.37;100.00;100872.56;10440540;28;20132;-82
2022/12/20 20:18:12;;;;;;;13.15;9.68;;;;;;;8.40;100.00;100880.56;10443989;28;20056;-91
2022/12/20 20:23:13;;;;;;;11.07;8.80;;;;;;;8.36;100.00;100876.00;10463063;28;20110;-93
2022/12/20 20:28:14;;;;;;;12.27;9.82;;;;;;;8.37;100.00;100876.09;10448314;28;20041;-92
2022/12/20 20:33:14;;;;;;;14.20;9.30;;;;;;;8.37;100.00;100863.06;10447299;28;20041;-91
2022/12/20 20:38:15;;;;;;;15.60;10.57;;;;;;;8.35;100.00;100884.63;10466399;28;20067;-92
2022/12/20 20:43:15;;;;;;;14.38;10.70;;;;;;;8.28;100.00;100875.56;10489584;28;20039;-92
2022/12/20 20:48:16;;;;;;;17.38;10.55;;;;;;;8.34;100.00;100878.53;10468988;28;20051;-93
2022/12/20 20:53:16;;;;;;;20.83;11.48;;;;;;;8.37;100.00;100877.78;10443408;28;20043;-91
2022/12/20 20:58:17;;;;;;;16.13;10.75;;;;;;;8.29;100.00;100884.28;10446705;28;20491;-92
2022/12/20 21:03:18;;;;;;;21.95;12.88;;;;;;;8.26;100.00;100876.28;10471527;28;20036;-92
2022/12/20 21:08:20;;;;;;;31.98;13.63;;;;;;;8.24;100.00;100876.22;10488676;28;20127;-91
2022/12/20 21:13:21;;;;;;;15.18;11.10;;;;;;;8.28;100.00;100878.19;10462590;28;20041;-91
2022/12/20 21:18:22;;;;;;;15.18;11.27;;;;;;;8.21;100.00;100865.59;10488205;28;20092;-91
2022/12/20 21:23:22;;;;;;;19.65;12.18;;;;;;;8.22;100.00;100875.22;10428194;28;20037;-92
2022/12/20 21:28:23;;;;;;;14.27;11.35;;;;;;;8.17;100.00;100864.50;10444963;28;20470;-86
2022/12/20 21:33:23;;;;;;;20.65;13.52;;;;;;;8.14;100.00;100859.13;10486268;28;20097;-92
2022/12/20 21:38:24;;;;;;;19.10;13.38;;;;;;;8.13;100.00;100854.72;10484999;28;20438;-91
2022/12/20 21:43:24;;;;;;;18.80;12.05;;;;;;;8.12;100.00;100857.25;10445983;28;20094;-91
2022/12/20 21:48:25;;;;;;;23.00;15.60;;;;;;;8.10;100.00;100870.19;10479047;28;20044;-92
2022/12/20 21:53:26;;;;;;;19.60;13.57;;;;;;;8.18;100.00;100868.03;10460564;28;20559;-91
2022/12/20 21:58:27;;;;;;;22.30;14.57;;;;;;;8.23;100.00;100861.38;10484885;28;20082;-92
2022/12/20 22:03:28;;;;;;;15.07;10.02;;;;;;;8.17;100.00;100861.91;10402015;28;20041;-91
2022/12/20 22:08:29;;;;;;;19.15;13.65;;;;;;;8.13;100.00;100872.09;10401328;28;20469;-91
2022/12/20 22:13:30;;;;;;;19.33;14.27;;;;;;;8.14;100.00;100866.94;10474649;28;20036;-90
2022/12/20 22:18:31;;;;;;;16.02;11.75;;;;;;;8.09;100.00;100868.38;10485242;28;20275;-91
2022/12/20 22:23:31;;;;;;;21.90;14.55;;;;;;;8.12;100.00;100873.78;10447179;28;20127;-91
2022/12/20 22:28:32;;;;;;;20.15;13.48;;;;;;;8.11;100.00;100881.53;10425250;28;20575;-92
2022/12/20 22:33:33;;;;;;;17.00;13.43;;;;;;;8.08;100.00;100879.63;10478711;28;20039;-93
2022/12/20 22:38:34;;;;;;;25.70;14.30;;;;;;;8.08;100.00;100874.41;10473427;28;20044;-89
2022/12/20 22:43:36;;;;;;;17.77;12.07;;;;;;;8.11;100.00;100879.81;10453736;28;20123;-91
2022/12/20 22:48:36;;;;;;;;;;;;;;;8.13;100.00;100887.72;10422002;28;20049;-86
2022/12/20 22:53:37;;;;;;;20.42;15.73;;;;;;;8.12;100.00;100896.34;10447068;28;19924;-90
2022/12/20 22:58:38;;;;;;;20.83;14.63;;;;;;;8.08;100.00;100884.84;10385234;28;20029;-90
2022/12/20 23:03:39;;;;;;;19.45;13.38;;;;;;;8.09;100.00;100884.03;10388364;28;20052;-88
2022/12/20 23:08:39;;;;;;;19.83;15.55;;;;;;;8.18;100.00;100884.56;10410549;28;20056;-81
2022/12/20 23:19:00;;;;;;;25.98;18.30;;;;;;;8.19;100.00;100907.22;10439179;28;20041;-93